Time;durP1;ratioP1;P1;durP2;ratioP2;P2;SDS_P1;SDS_P2;PMS_P1;PMS_P2;Temp;Humidity;BMP_temperature;BMP_pressure;BME280_temperature;BME280_humidity;BME280_pressure;Samples;Min_cycle;Max_cycle;Signal;HPM_P1;HPM_P2
2023/12/27 00:00:10;;;;;;;9.52;4.03;;;;;;;;;;4991253;28;92006;-83
2023/12/27 00:02:37;;;;;;;9.95;4.40;;;;;;;;;;5002601;28;92064;-82
2023/12/27 00:05:04;;;;;;;8.85;4.18;;;;;;;;;;5008496;28;92468;-82
2023/12/27 00:07:33;;;;;;;9.70;4.07;;;;;;;;;;5005808;28;95493;-82
2023/12/27 00:10:00;;;;;;;8.95;4.45;;;;;;;;;;4989950;28;92164;-83
2023/12/27 00:12:26;;;;;;;9.15;4.25;;;;;;;;;;5020524;27;92382;-82
2023/12/27 00:14:53;;;;;;;10.23;3.90;;;;;;;;;;5024133;27;93061;-84
2023/12/27 00:17:20;;;;;;;10.60;4.15;;;;;;;;;;5023270;27;92752;-83
2023/12/27 00:19:46;;;;;;;9.70;4.35;;;;;;;;;;5017419;28;95445;-81
2023/12/27 00:22:14;;;;;;;17.95;4.18;;;;;;;;;;5000157;28;92221;-83
2023/12/27 00:24:41;;;;;;;10.10;4.38;;;;;;;;;;5013725;28;92458;-81
2023/12/27 00:27:08;;;;;;;8.43;4.15;;;;;;;;;;5012523;28;95071;-82
2023/12/27 00:29:37;;;;;;;9.50;4.28;;;;;;;;;;4985092;28;92129;-82
2023/12/27 00:32:08;;;;;;;8.13;3.90;;;;;;;;;;5007087;28;94714;-82
2023/12/27 00:34:35;;;;;;;9.20;4.20;;;;;;;;;;5019230;28;95096;-82
2023/12/27 00:37:03;;;;;;;7.97;3.63;;;;;;;;;;5000521;28;95389;-82
2023/12/27 00:39:30;;;;;;;9.35;4.00;;;;;;;;;;4995657;28;92758;-82
2023/12/27 00:42:00;;;;;;;8.20;3.90;;;;;;;;;;5016425;28;92189;-82
2023/12/27 00:44:30;;;;;;;8.13;4.30;;;;;;;;;;5017869;28;92622;-82
2023/12/27 00:46:56;;;;;;;7.97;4.07;;;;;;;;;;5015053;28;95023;-82
2023/12/27 00:49:23;;;;;;;9.73;4.50;;;;;;;;;;4991592;28;91513;-82
2023/12/27 00:51:50;;;;;;;9.13;3.97;;;;;;;;;;5000557;28;94208;-83
2023/12/27 00:54:18;;;;;;;8.18;4.25;;;;;;;;;;5017014;28;95345;-84
2023/12/27 00:56:50;;;;;;;9.77;4.05;;;;;;;;;;5002413;28;94386;-83
2023/12/27 00:59:21;;;;;;;8.07;3.97;;;;;;;;;;5001959;28;92780;-83
2023/12/27 01:01:48;;;;;;;7.68;3.72;;;;;;;;;;5013677;28;92058;-83
2023/12/27 01:04:14;;;;;;;13.82;4.55;;;;;;;;;;5003313;28;94740;-83
2023/12/27 01:06:47;;;;;;;8.55;3.80;;;;;;;;;;5000216;28;92881;-83
2023/12/27 01:09:14;;;;;;;11.95;4.18;;;;;;;;;;5008831;28;92497;-83
2023/12/27 01:11:44;;;;;;;8.13;3.78;;;;;;;;;;5008908;28;92428;-83
2023/12/27 01:14:13;;;;;;;8.57;3.88;;;;;;;;;;5033680;28;94294;-83
2023/12/27 01:16:39;;;;;;;8.23;4.00;;;;;;;;;;5002836;28;92061;-82
2023/12/27 01:19:06;;;;;;;9.25;4.10;;;;;;;;;;4995625;28;95125;-82
2023/12/27 01:21:33;;;;;;;9.13;3.60;;;;;;;;;;4997709;28;94950;-83
2023/12/27 01:23:59;;;;;;;8.15;3.85;;;;;;;;;;5000051;28;98072;-82
2023/12/27 01:26:29;;;;;;;10.32;3.78;;;;;;;;;;4977399;28;95670;-82
2023/12/27 01:28:56;;;;;;;9.85;3.75;;;;;;;;;;5016633;28;92275;-81
2023/12/27 01:31:23;;;;;;;9.10;3.90;;;;;;;;;;5014369;28;92418;-82
2023/12/27 01:33:50;;;;;;;8.25;3.55;;;;;;;;;;5022981;28;95610;-81
2023/12/27 01:36:18;;;;;;;8.15;3.63;;;;;;;;;;5021758;28;92297;-83
2023/12/27 01:38:45;;;;;;;7.78;3.92;;;;;;;;;;5013451;28;94327;-82
2023/12/27 01:41:12;;;;;;;7.57;3.60;;;;;;;;;;5005791;28;95643;-82
2023/12/27 01:43:38;;;;;;;7.75;3.53;;;;;;;;;;5003930;28;92213;-81
2023/12/27 01:46:05;;;;;;;7.35;3.60;;;;;;;;;;5002028;28;97433;-83
2023/12/27 01:48:33;;;;;;;;;;;;;;;;;;4988825;28;92020;-82
2023/12/27 01:51:01;;;;;;;8.00;3.63;;;;;;;;;;5008092;28;105846;-81
2023/12/27 01:53:28;;;;;;;9.07;3.63;;;;;;;;;;5006304;28;94859;-80
2023/12/27 01:55:54;;;;;;;7.70;3.63;;;;;;;;;;5023912;28;92454;-82
2023/12/27 01:58:22;;;;;;;13.57;4.00;;;;;;;;;;5007168;28;93235;-81
2023/12/27 02:00:49;;;;;;;12.35;4.20;;;;;;;;;;5007942;28;92674;-80
2023/12/27 02:03:17;;;;;;;11.20;3.78;;;;;;;;;;5020960;28;92064;-80
2023/12/27 02:05:44;;;;;;;9.52;3.80;;;;;;;;;;5004801;28;94543;-82
2023/12/27 02:08:14;;;;;;;9.57;3.58;;;;;;;;;;5036134;28;92658;-82
2023/12/27 02:10:41;;;;;;;9.20;3.40;;;;;;;;;;5023785;28;95086;-81
2023/12/27 02:13:08;;;;;;;6.93;3.20;;;;;;;;;;5015351;28;92946;-82
2023/12/27 02:15:38;;;;;;;8.10;3.60;;;;;;;;;;5032351;28;92687;-82
2023/12/27 02:18:05;;;;;;;8.02;3.55;;;;;;;;;;5006349;28;95405;-82
2023/12/27 02:20:33;;;;;;;8.75;3.95;;;;;;;;;;5003920;28;97640;-82
2023/12/27 02:23:02;;;;;;;9.13;3.80;;;;;;;;;;5027149;28;92244;-82
2023/12/27 02:25:32;;;;;;;7.57;3.53;;;;;;;;;;5014188;28;92803;-81
2023/12/27 02:27:58;;;;;;;8.45;3.40;;;;;;;;;;5019952;28;91502;-81
2023/12/27 02:30:25;;;;;;;8.25;3.60;;;;;;;;;;5021462;27;93812;-81
2023/12/27 02:32:53;;;;;;;7.88;3.55;;;;;;;;;;5023726;27;92985;-81
2023/12/27 02:35:20;;;;;;;7.80;3.50;;;;;;;;;;5011307;27;94597;-82
2023/12/27 02:37:47;;;;;;;7.28;3.33;;;;;;;;;;5015274;28;97672;-81
2023/12/27 02:40:14;;;;;;;8.10;3.30;;;;;;;;;;5003955;28;93007;-81
2023/12/27 02:42:40;;;;;;;7.78;3.55;;;;;;;;;;4998293;28;92267;-81
2023/12/27 02:45:07;;;;;;;9.73;3.50;;;;;;;;;;4993799;28;94443;-82
2023/12/27 02:47:34;;;;;;;7.95;3.22;;;;;;;;;;5002437;28;92146;-82
2023/12/27 02:50:09;;;;;;;7.15;3.40;;;;;;;;;;4991797;28;94260;-81
2023/12/27 02:52:42;;;;;;;8.40;3.20;;;;;;;;;;5002321;28;98480;-82
2023/12/27 02:55:22;;;;;;;7.88;3.42;;;;;;;;;;4970760;28;92088;-83
2023/12/27 02:57:49;;;;;;;7.57;3.05;;;;;;;;;;5012739;28;94966;-83
2023/12/27 03:00:17;;;;;;;7.05;3.05;;;;;;;;;;4975426;28;94939;-83
2023/12/27 03:02:46;;;;;;;6.82;3.35;;;;;;;;;;5008164;28;92126;-82
2023/12/27 03:05:16;;;;;;;7.32;3.20;;;;;;;;;;5018335;28;94320;-82
2023/12/27 03:07:42;;;;;;;6.93;2.95;;;;;;;;;;5019624;28;93049;-83
2023/12/27 03:10:11;;;;;;;8.23;3.17;;;;;;;;;;5001135;28;94822;-82
2023/12/27 03:12:41;;;;;;;6.95;3.03;;;;;;;;;;5000718;28;95100;-81
2023/12/27 03:15:07;;;;;;;6.70;3.20;;;;;;;;;;5009339;28;93412;-80
2023/12/27 03:17:35;;;;;;;7.25;3.00;;;;;;;;;;5005442;28;95096;-82
2023/12/27 03:20:02;;;;;;;6.38;3.00;;;;;;;;;;4996010;28;95061;-82
2023/12/27 03:22:29;;;;;;;6.82;2.90;;;;;;;;;;4996444;28;92299;-81
2023/12/27 03:24:56;;;;;;;7.07;3.22;;;;;;;;;;4986967;28;94746;-82
2023/12/27 03:27:22;;;;;;;7.32;3.25;;;;;;;;;;4993024;28;92618;-82
2023/12/27 03:29:49;;;;;;;7.07;2.97;;;;;;;;;;4998469;28;92120;-83
2023/12/27 03:32:16;;;;;;;7.15;3.08;;;;;;;;;;5007743;28;95624;-83
2023/12/27 03:34:42;;;;;;;7.78;3.10;;;;;;;;;;5002893;28;92087;-82
2023/12/27 03:37:12;;;;;;;7.85;3.22;;;;;;;;;;5001807;28;92432;-83
2023/12/27 03:39:41;;;;;;;7.35;2.83;;;;;;;;;;5002173;28;92511;-82
2023/12/27 03:42:08;;;;;;;6.22;2.58;;;;;;;;;;5001958;27;91277;-83
2023/12/27 03:44:36;;;;;;;6.82;2.67;;;;;;;;;;5005389;28;93062;-83
2023/12/27 03:47:02;;;;;;;6.95;2.78;;;;;;;;;;5021293;28;95360;-82
2023/12/27 03:49:29;;;;;;;7.03;2.63;;;;;;;;;;5020402;27;94634;-82
2023/12/27 03:51:56;;;;;;;7.30;2.90;;;;;;;;;;5024963;28;96736;-80
2023/12/27 03:54:22;;;;;;;6.43;2.60;;;;;;;;;;5020408;28;92172;-82
2023/12/27 03:56:49;;;;;;;7.80;2.90;;;;;;;;;;5023147;28;93629;-82
2023/12/27 03:59:16;;;;;;;8.50;3.05;;;;;;;;;;5004197;28;95221;-81
2023/12/27 04:01:42;;;;;;;6.97;2.80;;;;;;;;;;5009975;27;92057;-81
2023/12/27 04:04:10;;;;;;;7.32;2.97;;;;;;;;;;4983760;28;95140;-82
2023/12/27 04:06:36;;;;;;;;;;;;;;;;;;5001521;28;94140;-82
2023/12/27 04:09:03;;;;;;;10.13;2.85;;;;;;;;;;4985190;28;104319;-83
2023/12/27 04:11:33;;;;;;;7.30;2.90;;;;;;;;;;5000979;28;95017;-82
2023/12/27 04:14:02;;;;;;;8.40;2.90;;;;;;;;;;5019356;28;96200;-83
2023/12/27 04:16:29;;;;;;;6.32;2.78;;;;;;;;;;5004446;28;97000;-82
2023/12/27 04:18:56;;;;;;;8.63;2.85;;;;;;;;;;5006218;28;93115;-83
2023/12/27 04:21:42;;;;;;;7.47;2.88;;;;;;;;;;5021921;28;92090;-82
2023/12/27 04:24:24;;;;;;;5.43;2.58;;;;;;;;;;5002823;28;95250;-81
2023/12/27 04:26:56;;;;;;;7.00;2.72;;;;;;;;;;5000871;28;95476;-81
2023/12/27 04:29:23;;;;;;;9.18;3.00;;;;;;;;;;5001772;28;92100;-81
2023/12/27 04:31:50;;;;;;;7.57;2.60;;;;;;;;;;5002380;28;92348;-81
2023/12/27 04:34:28;;;;;;;6.90;2.95;;;;;;;;;;5017175;27;92697;-80
2023/12/27 04:36:55;;;;;;;6.10;2.70;;;;;;;;;;5003538;28;93022;-81
2023/12/27 04:39:21;;;;;;;8.18;2.88;;;;;;;;;;4998592;28;98057;-81
2023/12/27 04:41:48;;;;;;;7.95;2.65;;;;;;;;;;5000892;28;92090;-82
2023/12/27 04:44:16;;;;;;;7.53;2.80;;;;;;;;;;4999477;28;95325;-81
2023/12/27 04:46:46;;;;;;;7.40;2.70;;;;;;;;;;4974454;28;94032;-82
2023/12/27 04:49:15;;;;;;;8.05;2.70;;;;;;;;;;4983748;28;92171;-81
2023/12/27 04:51:46;;;;;;;7.80;3.05;;;;;;;;;;5000640;28;92038;-82
2023/12/27 04:54:16;;;;;;;6.53;2.55;;;;;;;;;;4999794;27;92533;-82
2023/12/27 04:56:46;;;;;;;10.02;2.95;;;;;;;;;;5007066;27;97876;-81
2023/12/27 04:59:22;;;;;;;6.93;2.88;;;;;;;;;;5000678;28;93515;-83
2023/12/27 05:01:52;;;;;;;6.65;2.78;;;;;;;;;;4998211;28;92227;-82
2023/12/27 05:04:22;;;;;;;7.80;2.42;;;;;;;;;;4990868;28;94666;-82
2023/12/27 05:06:49;;;;;;;6.88;2.72;;;;;;;;;;5004682;28;93492;-83
2023/12/27 05:09:17;;;;;;;6.38;2.70;;;;;;;;;;4987290;28;92276;-82
2023/12/27 05:11:44;;;;;;;7.10;2.88;;;;;;;;;;5001383;28;94746;-82
2023/12/27 05:14:11;;;;;;;7.18;2.65;;;;;;;;;;5023400;27;92695;-82
2023/12/27 05:16:37;;;;;;;7.15;2.67;;;;;;;;;;5025128;27;92154;-82
2023/12/27 05:19:04;;;;;;;6.88;2.58;;;;;;;;;;5043042;27;92142;-82
2023/12/27 05:21:31;;;;;;;6.28;2.70;;;;;;;;;;5024759;28;91563;-83
2023/12/27 05:23:58;;;;;;;7.43;2.67;;;;;;;;;;5024098;28;94341;-82
2023/12/27 05:26:25;;;;;;;7.00;2.90;;;;;;;;;;5022482;27;93255;-83
2023/12/27 05:28:54;;;;;;;8.13;2.72;;;;;;;;;;5018833;28;94641;-83
2023/12/27 05:31:21;;;;;;;6.65;2.70;;;;;;;;;;5004003;28;94879;-82
2023/12/27 05:33:48;;;;;;;11.05;2.70;;;;;;;;;;5016647;28;93074;-83
2023/12/27 05:36:14;;;;;;;7.40;2.42;;;;;;;;;;5009938;28;92747;-83
2023/12/27 05:38:41;;;;;;;10.95;3.00;;;;;;;;;;5024653;28;92153;-83
2023/12/27 05:41:08;;;;;;;6.97;2.50;;;;;;;;;;5027139;27;94543;-82
2023/12/27 05:43:35;;;;;;;6.70;2.70;;;;;;;;;;5024702;28;92911;-83
2023/12/27 05:46:01;;;;;;;8.35;2.65;;;;;;;;;;5040628;27;94211;-82
2023/12/27 05:48:28;;;;;;;7.40;2.67;;;;;;;;;;5020982;27;92179;-82
2023/12/27 05:50:55;;;;;;;6.72;2.53;;;;;;;;;;5002650;28;95546;-83
2023/12/27 05:53:22;;;;;;;5.57;2.50;;;;;;;;;;5004062;27;95792;-83
2023/12/27 05:55:48;;;;;;;6.50;2.33;;;;;;;;;;5004983;27;92010;-82
2023/12/27 05:58:15;;;;;;;6.75;2.50;;;;;;;;;;5021306;27;92686;-82
2023/12/27 06:00:41;;;;;;;7.55;2.47;;;;;;;;;;4999387;28;95527;-83
2023/12/27 06:03:10;;;;;;;7.65;2.75;;;;;;;;;;5031464;28;92163;-82
2023/12/27 06:05:36;;;;;;;6.22;2.30;;;;;;;;;;5008015;28;94870;-82
2023/12/27 06:08:03;;;;;;;5.57;2.22;;;;;;;;;;4983129;28;92138;-82
2023/12/27 06:10:30;;;;;;;7.00;2.80;;;;;;;;;;4990464;28;91856;-81
2023/12/27 06:12:56;;;;;;;7.47;2.53;;;;;;;;;;5013667;27;96218;-82
2023/12/27 06:15:23;;;;;;;8.15;2.60;;;;;;;;;;5012363;27;92616;-82
2023/12/27 06:17:50;;;;;;;7.05;2.85;;;;;;;;;;5017659;28;94426;-82
2023/12/27 06:20:22;;;;;;;9.13;2.80;;;;;;;;;;5032045;27;94341;-81
2023/12/27 06:22:48;;;;;;;6.15;2.38;;;;;;;;;;5052145;27;92124;-81
2023/12/27 06:25:15;;;;;;;7.97;2.40;;;;;;;;;;5011257;28;93802;-81
2023/12/27 06:27:41;;;;;;;7.10;2.60;;;;;;;;;;4974415;28;92227;-81
2023/12/27 06:30:11;;;;;;;7.55;2.60;;;;;;;;;;5020040;28;92810;-81
2023/12/27 06:32:38;;;;;;;6.85;2.42;;;;;;;;;;5004313;28;92878;-82
2023/12/27 06:35:05;;;;;;;7.22;2.28;;;;;;;;;;5002316;28;91175;-81
2023/12/27 06:37:31;;;;;;;7.57;2.50;;;;;;;;;;5004157;28;92119;-81
2023/12/27 06:39:58;;;;;;;7.07;2.30;;;;;;;;;;4998266;28;95778;-82
2023/12/27 06:42:34;;;;;;;6.78;2.30;;;;;;;;;;4965851;28;94693;-81
2023/12/27 06:45:04;;;;;;;7.60;2.40;;;;;;;;;;4986641;28;94932;-81
2023/12/27 06:47:34;;;;;;;5.85;2.28;;;;;;;;;;5006166;28;92395;-81
2023/12/27 06:50:03;;;;;;;6.05;2.42;;;;;;;;;;5018967;28;94471;-81
2023/12/27 06:52:43;;;;;;;6.35;2.45;;;;;;;;;;5025472;27;96618;-81
2023/12/27 06:55:12;;;;;;;8.00;2.55;;;;;;;;;;5025968;28;92220;-81
2023/12/27 06:57:42;;;;;;;8.05;2.70;;;;;;;;;;5030785;27;92653;-81
2023/12/27 07:00:10;;;;;;;5.90;2.38;;;;;;;;;;5005422;27;92022;-81
2023/12/27 07:02:40;;;;;;;7.57;2.30;;;;;;;;;;5003652;28;92105;-81
2023/12/27 07:05:15;;;;;;;7.88;2.60;;;;;;;;;;5002794;28;92443;-81
2023/12/27 07:07:42;;;;;;;7.72;2.75;;;;;;;;;;5005184;28;96361;-82
2023/12/27 07:10:09;;;;;;;7.03;2.65;;;;;;;;;;5001126;28;97762;-83
2023/12/27 07:12:39;;;;;;;7.13;2.67;;;;;;;;;;4986471;28;94809;-82
2023/12/27 07:15:07;;;;;;;9.27;2.85;;;;;;;;;;5026439;28;91963;-83
2023/12/27 07:17:34;;;;;;;6.03;2.40;;;;;;;;;;5011397;28;93069;-82
2023/12/27 07:20:00;;;;;;;9.25;2.42;;;;;;;;;;5017674;28;95044;-82
2023/12/27 07:22:27;;;;;;;10.18;2.67;;;;;;;;;;5005578;28;92606;-82
2023/12/27 07:24:57;;;;;;;7.85;2.22;;;;;;;;;;5022168;28;92446;-82
2023/12/27 07:27:23;;;;;;;7.97;2.75;;;;;;;;;;5023355;27;92219;-81
2023/12/27 07:29:53;;;;;;;7.53;2.65;;;;;;;;;;5025324;27;92342;-82
2023/12/27 07:32:22;;;;;;;8.23;2.58;;;;;;;;;;5010692;28;98143;-81
2023/12/27 07:34:48;;;;;;;8.13;2.20;;;;;;;;;;5020601;27;92134;-80
2023/12/27 07:37:15;;;;;;;6.85;2.40;;;;;;;;;;5009441;28;95136;-82
2023/12/27 07:39:42;;;;;;;6.93;2.60;;;;;;;;;;4983963;28;94326;-82
2023/12/27 07:42:08;;;;;;;7.53;2.40;;;;;;;;;;4999005;28;92259;-82
2023/12/27 07:44:35;;;;;;;9.55;2.55;;;;;;;;;;5000273;28;92713;-80
2023/12/27 07:47:04;;;;;;;7.97;2.30;;;;;;;;;;5000999;28;93117;-82
2023/12/27 07:49:30;;;;;;;8.98;2.28;;;;;;;;;;5004705;27;91353;-82
2023/12/27 07:51:57;;;;;;;9.48;2.58;;;;;;;;;;5019071;28;92546;-82
2023/12/27 07:54:24;;;;;;;9.02;2.63;;;;;;;;;;5015678;28;92335;-82
2023/12/27 07:56:51;;;;;;;6.35;2.38;;;;;;;;;;4998102;28;95285;-81
2023/12/27 07:59:17;;;;;;;9.45;2.20;;;;;;;;;;5015530;28;92552;-81
2023/12/27 08:01:45;;;;;;;9.43;2.55;;;;;;;;;;4999603;28;92655;-80
2023/12/27 08:04:12;;;;;;;8.18;2.13;;;;;;;;;;5016511;28;94114;-80
2023/12/27 08:06:39;;;;;;;7.22;2.13;;;;;;;;;;5019445;28;95181;-79
2023/12/27 08:09:06;;;;;;;7.55;2.50;;;;;;;;;;5020533;27;91958;-80
2023/12/27 08:11:32;;;;;;;8.13;2.10;;;;;;;;;;5019362;28;95031;-79
2023/12/27 08:13:59;;;;;;;8.70;2.38;;;;;;;;;;5005265;28;93773;-80
2023/12/27 08:16:26;;;;;;;6.80;2.30;;;;;;;;;;5020243;28;92385;-80
2023/12/27 08:18:53;;;;;;;5.32;1.95;;;;;;;;;;5021352;27;92767;-81
2023/12/27 08:21:20;;;;;;;9.13;2.13;;;;;;;;;;5008873;28;95272;-80
2023/12/27 08:23:46;;;;;;;7.07;2.40;;;;;;;;;;5014676;28;94782;-80
2023/12/27 08:26:14;;;;;;;6.13;2.30;;;;;;;;;;5013681;28;97213;-80
2023/12/27 08:28:40;;;;;;;7.63;2.35;;;;;;;;;;4994258;28;92086;-80
2023/12/27 08:31:07;;;;;;;6.22;2.25;;;;;;;;;;4992619;28;94953;-80
2023/12/27 08:33:35;;;;;;;6.80;2.20;;;;;;;;;;4998550;28;95761;-80
2023/12/27 08:36:02;;;;;;;6.18;2.50;;;;;;;;;;5001648;28;92059;-80
2023/12/27 08:38:29;;;;;;;6.10;2.30;;;;;;;;;;4998598;28;91963;-81
2023/12/27 08:40:56;;;;;;;7.28;2.35;;;;;;;;;;4991803;28;92483;-80
2023/12/27 08:43:29;;;;;;;5.55;1.75;;;;;;;;;;4990607;28;92831;-81
2023/12/27 08:45:56;;;;;;;7.10;2.30;;;;;;;;;;5011834;28;102284;-80
2023/12/27 08:48:23;;;;;;;6.65;2.10;;;;;;;;;;5000291;28;92057;-80
2023/12/27 08:50:51;;;;;;;6.00;1.90;;;;;;;;;;4999284;28;92692;-82
2023/12/27 08:53:18;;;;;;;4.97;2.00;;;;;;;;;;4999026;28;95087;-80
2023/12/27 08:55:44;;;;;;;5.32;1.83;;;;;;;;;;5003834;28;92045;-80
2023/12/27 08:58:12;;;;;;;5.78;1.85;;;;;;;;;;5000322;28;93500;-80
2023/12/27 09:00:39;;;;;;;5.70;2.03;;;;;;;;;;5000349;28;92057;-80
2023/12/27 09:03:06;;;;;;;5.75;1.63;;;;;;;;;;4993344;28;92310;-80
2023/12/27 09:05:32;;;;;;;6.03;2.10;;;;;;;;;;5007871;28;92267;-80
2023/12/27 09:07:59;;;;;;;6.90;2.10;;;;;;;;;;5000654;28;92345;-80
2023/12/27 09:10:26;;;;;;;4.60;1.98;;;;;;;;;;4995344;28;94833;-80
2023/12/27 09:12:52;;;;;;;5.28;1.83;;;;;;;;;;5004721;28;93967;-81
2023/12/27 09:15:19;;;;;;;6.00;1.90;;;;;;;;;;5009386;28;95907;-80
2023/12/27 09:17:47;;;;;;;4.68;1.73;;;;;;;;;;5016497;28;92348;-81
2023/12/27 09:20:14;;;;;;;4.43;1.80;;;;;;;;;;5003018;28;92532;-81
2023/12/27 09:22:40;;;;;;;5.95;1.90;;;;;;;;;;5015530;28;93343;-80
2023/12/27 09:25:07;;;;;;;4.97;1.70;;;;;;;;;;5006736;28;92614;-80
2023/12/27 09:27:34;;;;;;;5.38;1.70;;;;;;;;;;5016141;28;91356;-80
2023/12/27 09:30:00;;;;;;;3.88;1.67;;;;;;;;;;5003003;28;93951;-80
2023/12/27 09:32:27;;;;;;;4.80;1.90;;;;;;;;;;5009408;28;95320;-82
2023/12/27 09:34:54;;;;;;;4.00;1.52;;;;;;;;;;5010712;28;94723;-80
2023/12/27 09:37:20;;;;;;;4.47;1.80;;;;;;;;;;5009876;28;94794;-80
2023/12/27 09:39:47;;;;;;;3.88;1.90;;;;;;;;;;5022748;28;93026;-81
2023/12/27 09:42:14;;;;;;;5.68;2.20;;;;;;;;;;5001287;27;92234;-80
2023/12/27 09:44:42;;;;;;;4.25;1.70;;;;;;;;;;5015117;28;95254;-80
2023/12/27 09:47:10;;;;;;;6.25;2.13;;;;;;;;;;5000045;28;92319;-81
2023/12/27 09:49:36;;;;;;;4.50;2.00;;;;;;;;;;5004141;28;93030;-80
2023/12/27 09:52:04;;;;;;;4.00;1.65;;;;;;;;;;5020487;28;92634;-80
2023/12/27 09:54:30;;;;;;;5.03;1.90;;;;;;;;;;5000731;28;94720;-80
2023/12/27 09:56:57;;;;;;;3.50;1.63;;;;;;;;;;5008515;28;95655;-80
2023/12/27 09:59:28;;;;;;;3.33;1.77;;;;;;;;;;5019541;28;95592;-80
2023/12/27 10:02:01;;;;;;;5.50;1.77;;;;;;;;;;5026174;27;92279;-80
2023/12/27 10:04:35;;;;;;;5.18;1.70;;;;;;;;;;5022654;27;93052;-79
2023/12/27 10:07:03;;;;;;;2.65;1.50;;;;;;;;;;5022111;28;91971;-81
2023/12/27 10:09:29;;;;;;;;;;;;;;;;;;5021562;28;92321;-81
2023/12/27 10:11:56;;;;;;;3.80;1.73;;;;;;;;;;5008455;28;92893;-81
2023/12/27 10:14:24;;;;;;;4.47;1.67;;;;;;;;;;5002076;28;92366;-80
2023/12/27 10:16:51;;;;;;;3.15;1.65;;;;;;;;;;5001929;28;95080;-81
2023/12/27 10:19:37;;;;;;;3.58;1.73;;;;;;;;;;5001397;28;92688;-80
2023/12/27 10:22:04;;;;;;;5.50;1.67;;;;;;;;;;5003154;28;92282;-80
2023/12/27 10:24:31;;;;;;;3.90;1.60;;;;;;;;;;4987666;28;95217;-80
2023/12/27 10:26:57;;;;;;;3.95;1.63;;;;;;;;;;5022774;27;92176;-80
2023/12/27 10:29:24;;;;;;;3.67;1.60;;;;;;;;;;5021965;28;92437;-80
2023/12/27 10:31:51;;;;;;;4.03;1.60;;;;;;;;;;5009669;28;93037;-80
2023/12/27 10:34:18;;;;;;;5.13;1.70;;;;;;;;;;5001583;28;92372;-80
2023/12/27 10:36:45;;;;;;;;;;;;;;;;;;5001383;28;94154;-80
2023/12/27 10:39:11;;;;;;;4.22;1.67;;;;;;;;;;4984649;28;116531;-79
2023/12/27 10:41:42;;;;;;;4.40;1.73;;;;;;;;;;5003451;28;91475;-79
2023/12/27 10:44:09;;;;;;;3.67;1.77;;;;;;;;;;4999739;28;92282;-80
2023/12/27 10:46:38;;;;;;;5.20;1.60;;;;;;;;;;5003950;28;95526;-81
2023/12/27 10:49:05;;;;;;;4.22;1.83;;;;;;;;;;5000127;28;94409;-79
2023/12/27 10:51:37;;;;;;;2.88;1.55;;;;;;;;;;5001028;28;93642;-80
2023/12/27 10:54:05;;;;;;;5.72;1.83;;;;;;;;;;5001666;28;91987;-80
2023/12/27 10:56:38;;;;;;;3.97;1.70;;;;;;;;;;5000537;28;99160;-80
2023/12/27 10:59:05;;;;;;;5.28;1.95;;;;;;;;;;5023601;28;93119;-80
2023/12/27 11:01:33;;;;;;;3.42;1.70;;;;;;;;;;5009037;28;92297;-80
2023/12/27 11:04:03;;;;;;;3.80;1.58;;;;;;;;;;5017251;28;92093;-79
2023/12/27 11:06:31;;;;;;;3.50;1.40;;;;;;;;;;5002587;28;94323;-80
2023/12/27 11:08:58;;;;;;;3.83;1.50;;;;;;;;;;5007484;28;94581;-79
2023/12/27 11:11:25;;;;;;;5.25;1.90;;;;;;;;;;5037161;27;92653;-81
2023/12/27 11:13:52;;;;;;;4.10;1.67;;;;;;;;;;5018449;28;94626;-80
2023/12/27 11:16:21;;;;;;;4.03;1.60;;;;;;;;;;5003919;28;94797;-81
2023/12/27 11:18:49;;;;;;;3.13;1.60;;;;;;;;;;5020157;28;94808;-80
2023/12/27 11:21:16;;;;;;;3.25;1.42;;;;;;;;;;5020099;28;92083;-81
2023/12/27 11:23:43;;;;;;;3.17;1.60;;;;;;;;;;5031143;28;95229;-80
2023/12/27 11:26:10;;;;;;;3.30;1.30;;;;;;;;;;5004412;28;92620;-81
2023/12/27 11:28:40;;;;;;;3.50;1.45;;;;;;;;;;4985147;28;92672;-81
2023/12/27 11:31:06;;;;;;;2.80;1.40;;;;;;;;;;4982228;28;92765;-81
2023/12/27 11:33:34;;;;;;;4.53;1.60;;;;;;;;;;4966990;28;92107;-80
2023/12/27 11:36:02;;;;;;;2.58;1.40;;;;;;;;;;4996598;28;95471;-80
2023/12/27 11:38:28;;;;;;;;;;;;;;;;;;5014436;27;97605;-81
2023/12/27 11:40:56;;;;;;;1.90;1.30;;;;;;;;;;5002426;28;94274;-80
2023/12/27 11:43:25;;;;;;;2.95;1.33;;;;;;;;;;5001516;28;92683;-80
2023/12/27 11:45:58;;;;;;;4.97;1.67;;;;;;;;;;5000119;28;92686;-80
2023/12/27 11:48:27;;;;;;;3.22;1.30;;;;;;;;;;5000576;28;92736;-81
2023/12/27 11:50:55;;;;;;;3.00;1.50;;;;;;;;;;5010819;28;92433;-81
2023/12/27 11:53:25;;;;;;;4.47;1.60;;;;;;;;;;5009650;28;92669;-81
2023/12/27 11:55:52;;;;;;;2.38;1.38;;;;;;;;;;5014964;28;95857;-81
2023/12/27 11:58:28;;;;;;;3.15;1.50;;;;;;;;;;5002364;27;95605;-81
2023/12/27 12:00:55;;;;;;;3.53;1.50;;;;;;;;;;5021135;27;94623;-80
2023/12/27 12:03:31;;;;;;;3.58;1.50;;;;;;;;;;5014964;28;95021;-81
2023/12/27 12:06:21;;;;;;;2.50;1.27;;;;;;;;;;4999643;28;92658;-80
2023/12/27 12:08:48;;;;;;;2.42;1.25;;;;;;;;;;4999917;28;92252;-79
2023/12/27 12:11:21;;;;;;;3.53;1.30;;;;;;;;;;5000022;28;95535;-81
2023/12/27 12:13:48;;;;;;;3.15;1.40;;;;;;;;;;5002893;28;92828;-80
2023/12/27 12:16:15;;;;;;;5.00;1.60;;;;;;;;;;4981895;28;94723;-81
2023/12/27 12:18:42;;;;;;;3.95;1.45;;;;;;;;;;4996791;28;93355;-81
2023/12/27 12:21:09;;;;;;;2.70;1.30;;;;;;;;;;4988451;28;93220;-80
2023/12/27 12:23:35;;;;;;;3.65;1.48;;;;;;;;;;4992633;28;92583;-80
2023/12/27 12:26:03;;;;;;;3.53;1.35;;;;;;;;;;4989153;27;93187;-81
2023/12/27 12:28:29;;;;;;;3.90;1.50;;;;;;;;;;4998915;28;94869;-80
2023/12/27 12:30:56;;;;;;;4.75;1.50;;;;;;;;;;5001211;28;95328;-80
2023/12/27 12:33:24;;;;;;;2.63;1.55;;;;;;;;;;4999511;28;95183;-80
2023/12/27 12:35:51;;;;;;;;;;;;;;;;;;5003133;28;92943;-80
2023/12/27 12:38:20;;;;;;;3.53;1.45;;;;;;;;;;5018419;28;92760;-80
2023/12/27 12:40:47;;;;;;;4.20;1.48;;;;;;;;;;4990943;28;92173;-79
2023/12/27 12:43:15;;;;;;;3.25;1.42;;;;;;;;;;5000541;28;92245;-80
2023/12/27 12:45:44;;;;;;;3.70;1.30;;;;;;;;;;4999605;28;94797;-80
2023/12/27 12:48:11;;;;;;;3.58;1.50;;;;;;;;;;4999232;28;92362;-81
2023/12/27 12:50:38;;;;;;;2.33;1.33;;;;;;;;;;5000929;28;92817;-80
2023/12/27 12:53:15;;;;;;;1.52;1.05;;;;;;;;;;4978361;28;96859;-80
2023/12/27 12:55:43;;;;;;;3.50;1.40;;;;;;;;;;4981406;28;92155;-80
2023/12/27 12:58:13;;;;;;;2.83;1.30;;;;;;;;;;4987617;28;92960;-81
2023/12/27 13:00:39;;;;;;;3.17;1.30;;;;;;;;;;5015557;28;92498;-81
2023/12/27 13:03:09;;;;;;;2.80;1.30;;;;;;;;;;5000967;28;93150;-80
2023/12/27 13:05:41;;;;;;;2.83;1.38;;;;;;;;;;5000926;28;92641;-81
2023/12/27 13:08:07;;;;;;;3.20;1.20;;;;;;;;;;4999482;28;92342;-81
2023/12/27 13:10:36;;;;;;;3.33;1.30;;;;;;;;;;4999512;28;95169;-80
2023/12/27 13:13:02;;;;;;;3.22;1.60;;;;;;;;;;4999113;28;95233;-80
2023/12/27 13:15:29;;;;;;;2.20;1.23;;;;;;;;;;4998582;28;92251;-81
2023/12/27 13:17:56;;;;;;;2.25;1.30;;;;;;;;;;5002202;28;94462;-81
2023/12/27 13:20:24;;;;;;;3.08;1.50;;;;;;;;;;4999652;28;94310;-80
2023/12/27 13:22:50;;;;;;;5.90;1.60;;;;;;;;;;5001289;28;92713;-81
2023/12/27 13:25:17;;;;;;;3.90;1.48;;;;;;;;;;4986454;28;95534;-80
2023/12/27 13:27:45;;;;;;;3.53;1.40;;;;;;;;;;5020038;28;92462;-81
2023/12/27 13:30:24;;;;;;;2.85;1.58;;;;;;;;;;5001499;28;94992;-80
2023/12/27 13:32:50;;;;;;;2.75;1.30;;;;;;;;;;5002956;28;92798;-80
2023/12/27 13:35:17;;;;;;;2.72;1.33;;;;;;;;;;5004002;28;91592;-81
2023/12/27 13:37:44;;;;;;;3.13;1.40;;;;;;;;;;5003543;28;92315;-80
2023/12/27 13:40:11;;;;;;;2.42;1.40;;;;;;;;;;5005694;28;92778;-81
2023/12/27 13:42:37;;;;;;;3.25;1.48;;;;;;;;;;5002420;28;94629;-79
2023/12/27 13:45:05;;;;;;;3.33;1.48;;;;;;;;;;5003408;28;93049;-80
2023/12/27 13:47:32;;;;;;;3.33;1.40;;;;;;;;;;5002722;28;92480;-81
2023/12/27 13:49:59;;;;;;;2.80;1.50;;;;;;;;;;5002064;28;95151;-80
2023/12/27 13:52:26;;;;;;;3.22;1.35;;;;;;;;;;5002815;28;93539;-81
2023/12/27 13:54:53;;;;;;;4.10;1.42;;;;;;;;;;5001864;28;92280;-80
2023/12/27 13:57:20;;;;;;;4.03;1.50;;;;;;;;;;5013763;28;92651;-80
2023/12/27 13:59:46;;;;;;;2.90;1.20;;;;;;;;;;5039209;28;92098;-80
2023/12/27 14:02:13;;;;;;;2.67;1.42;;;;;;;;;;5023908;27;92298;-80
2023/12/27 14:04:41;;;;;;;3.63;1.55;;;;;;;;;;4989558;28;95723;-81
2023/12/27 14:07:08;;;;;;;3.65;1.33;;;;;;;;;;5012956;27;94745;-80
2023/12/27 14:09:34;;;;;;;2.65;1.30;;;;;;;;;;5013008;28;96939;-81
2023/12/27 14:12:01;;;;;;;3.90;1.38;;;;;;;;;;5007755;28;93404;-81
2023/12/27 14:14:28;;;;;;;3.03;1.50;;;;;;;;;;5001094;28;92760;-82
2023/12/27 14:16:55;;;;;;;2.33;1.27;;;;;;;;;;5024723;28;94581;-81
2023/12/27 14:19:22;;;;;;;2.97;1.40;;;;;;;;;;5012597;28;92838;-81
2023/12/27 14:21:48;;;;;;;2.70;1.40;;;;;;;;;;5032969;28;92143;-80
2023/12/27 14:24:15;;;;;;;4.55;1.50;;;;;;;;;;5006025;28;92215;-81
2023/12/27 14:26:42;;;;;;;3.75;1.30;;;;;;;;;;4982044;28;92195;-81
2023/12/27 14:29:09;;;;;;;4.28;1.50;;;;;;;;;;4987785;28;94807;-81
2023/12/27 14:31:36;;;;;;;3.33;1.60;;;;;;;;;;5025276;28;96393;-80
2023/12/27 14:34:03;;;;;;;3.75;1.40;;;;;;;;;;5018959;28;92103;-81
2023/12/27 14:36:30;;;;;;;4.70;1.75;;;;;;;;;;5001700;28;92798;-79
2023/12/27 14:39:06;;;;;;;4.20;1.48;;;;;;;;;;5002720;28;92687;-81
2023/12/27 14:41:33;;;;;;;4.90;1.60;;;;;;;;;;5014045;28;92242;-80
2023/12/27 14:44:01;;;;;;;8.43;1.65;;;;;;;;;;5020768;28;94660;-80
2023/12/27 14:46:27;;;;;;;4.40;1.70;;;;;;;;;;5018629;27;93350;-80